This is the latest recevied weather packets stored in our database for station/object MEGLR. If no packets are shown the sender has not sent any weather packets the latest 10 day(s).
| Time | Temp. | Humidity | Pressure | Rain* | Wind** | Luminosity | Snow |
|---|---|---|---|---|---|---|---|
| 1777756203 | 12.22° C | 89% | 0 hPa | - | - | - | - |
| 1777755604 | 12.78° C | 87% | 0 hPa | - | - | - | - |
| 1777755002 | 12.78° C | 88% | 0 hPa | - | - | - | - |
| 1777754402 | 12.78° C | 88% | 0 hPa | - | - | - | - |
| 1777753808 | 12.22° C | 89% | 0 hPa | - | - | - | - |
| 1777753203 | 12.22° C | 88% | 0 hPa | - | - | - | - |
| 1777752603 | 12.22° C | 87% | 0 hPa | - | - | - | - |
| 1777752004 | 12.22° C | 88% | 0 hPa | - | - | - | - |
| 1777751403 | 11.67° C | 93% | 0 hPa | - | - | - | - |
| 1777750802 | 11.11° C | 94% | 0 hPa | - | - | - | - |
| 1777750203 | 10.56° C | 95% | 0 hPa | - | - | - | - |
| 1777749603 | 11.11° C | 94% | 0 hPa | - | - | - | - |
| 1777749003 | 10.56° C | 95% | 0 hPa | - | - | - | - |
| 1777748403 | 11.11° C | 92% | 0 hPa | - | - | - | - |
| 1777747803 | 11.11° C | 90% | 0 hPa | - | - | - | - |
| 1777747203 | 11.11° C | 90% | 0 hPa | - | - | - | - |
| 1777746603 | 11.11° C | 91% | 0 hPa | - | - | - | - |
| 1777746003 | 11.11° C | 90% | 0 hPa | - | - | - | - |
| 1777745403 | 11.11° C | 90% | 0 hPa | - | - | - | - |
| 1777744804 | 11.67° C | 87% | 0 hPa | - | - | - | - |
| 1777744203 | 11.11° C | 91% | 0 hPa | - | - | - | - |
| 1777743603 | 10.56° C | 93% | 0 hPa | - | - | - | - |
| 1777743003 | 10.56° C | 94% | 0 hPa | - | - | - | - |
| 1777742403 | 10.56° C | 96% | 0 hPa | - | - | - | - |
| 1777741803 | 10° C | 96% | 0 hPa | - | - | - | - |
* Rain since midnight (hover to see other rain measurements)
** Current wind speed in m/s (hover to see current wind gust speed)